sensor_id;sensor_type;location;lat;lon;timestamp;temperature;humidity
38333;DHT22;25748;46.670;14.272;2023-09-07T00:01:18;14.90;67.30
38333;DHT22;25748;46.670;14.272;2023-09-07T00:03:44;14.90;67.20
38333;DHT22;25748;46.670;14.272;2023-09-07T00:06:10;14.80;67.20
38333;DHT22;25748;46.670;14.272;2023-09-07T00:08:36;14.70;67.30
38333;DHT22;25748;46.670;14.272;2023-09-07T00:11:09;14.70;67.60
38333;DHT22;25748;46.670;14.272;2023-09-07T00:13:37;14.70;67.50
38333;DHT22;25748;46.670;14.272;2023-09-07T00:16:04;14.60;67.50
38333;DHT22;25748;46.670;14.272;2023-09-07T00:18:31;14.50;67.40
38333;DHT22;25748;46.670;14.272;2023-09-07T00:20:56;14.50;67.30
38333;DHT22;25748;46.670;14.272;2023-09-07T00:23:22;14.50;67.30
38333;DHT22;25748;46.670;14.272;2023-09-07T00:25:48;14.40;67.70
38333;DHT22;25748;46.670;14.272;2023-09-07T00:28:14;14.40;67.90
38333;DHT22;25748;46.670;14.272;2023-09-07T00:30:39;14.40;68.20
38333;DHT22;25748;46.670;14.272;2023-09-07T00:33:06;14.30;67.80
38333;DHT22;25748;46.670;14.272;2023-09-07T00:35:31;14.30;67.80
38333;DHT22;25748;46.670;14.272;2023-09-07T00:37:57;14.30;68.20
38333;DHT22;25748;46.670;14.272;2023-09-07T00:40:22;14.20;68.20
38333;DHT22;25748;46.670;14.272;2023-09-07T00:42:48;14.20;68.40
38333;DHT22;25748;46.670;14.272;2023-09-07T00:45:15;14.20;68.50
38333;DHT22;25748;46.670;14.272;2023-09-07T00:47:41;14.20;68.60
38333;DHT22;25748;46.670;14.272;2023-09-07T00:50:07;14.20;68.30
38333;DHT22;25748;46.670;14.272;2023-09-07T00:52:34;14.20;68.20
38333;DHT22;25748;46.670;14.272;2023-09-07T00:55:01;14.10;68.30
38333;DHT22;25748;46.670;14.272;2023-09-07T00:57:27;14.10;68.20
38333;DHT22;25748;46.670;14.272;2023-09-07T00:59:54;14.10;68.20
38333;DHT22;25748;46.670;14.272;2023-09-07T01:02:20;14.00;67.70
38333;DHT22;25748;46.670;14.272;2023-09-07T01:04:45;14.00;67.90
38333;DHT22;25748;46.670;14.272;2023-09-07T01:07:17;13.90;67.90
38333;DHT22;25748;46.670;14.272;2023-09-07T01:09:45;13.90;67.80
38333;DHT22;25748;46.670;14.272;2023-09-07T01:12:16;13.90;68.00
38333;DHT22;25748;46.670;14.272;2023-09-07T01:14:41;13.80;67.70
38333;DHT22;25748;46.670;14.272;2023-09-07T01:17:08;13.80;67.60
38333;DHT22;25748;46.670;14.272;2023-09-07T01:19:34;13.80;67.60
38333;DHT22;25748;46.670;14.272;2023-09-07T01:22:00;13.70;67.70
38333;DHT22;25748;46.670;14.272;2023-09-07T01:24:28;13.70;67.80
38333;DHT22;25748;46.670;14.272;2023-09-07T01:26:57;13.60;67.90
38333;DHT22;25748;46.670;14.272;2023-09-07T01:29:24;13.60;68.00
38333;DHT22;25748;46.670;14.272;2023-09-07T01:31:52;13.50;67.90
38333;DHT22;25748;46.670;14.272;2023-09-07T01:34:18;13.50;68.00
38333;DHT22;25748;46.670;14.272;2023-09-07T01:36:44;13.50;68.20
38333;DHT22;25748;46.670;14.272;2023-09-07T01:39:11;13.50;68.40
38333;DHT22;25748;46.670;14.272;2023-09-07T01:41:36;13.40;68.40
38333;DHT22;25748;46.670;14.272;2023-09-07T01:44:02;13.40;68.40
38333;DHT22;25748;46.670;14.272;2023-09-07T01:46:28;13.30;68.60
38333;DHT22;25748;46.670;14.272;2023-09-07T01:48:53;13.30;68.80
38333;DHT22;25748;46.670;14.272;2023-09-07T01:51:19;13.30;69.10
38333;DHT22;25748;46.670;14.272;2023-09-07T01:53:47;13.30;69.30
38333;DHT22;25748;46.670;14.272;2023-09-07T01:56:15;13.20;69.50
38333;DHT22;25748;46.670;14.272;2023-09-07T01:58:41;13.20;69.40
38333;DHT22;25748;46.670;14.272;2023-09-07T02:01:07;13.20;69.30
38333;DHT22;25748;46.670;14.272;2023-09-07T02:03:32;13.20;69.30
38333;DHT22;25748;46.670;14.272;2023-09-07T02:05:58;13.20;69.50
38333;DHT22;25748;46.670;14.272;2023-09-07T02:08:23;13.20;69.60
38333;DHT22;25748;46.670;14.272;2023-09-07T02:10:49;13.20;69.50
38333;DHT22;25748;46.670;14.272;2023-09-07T02:13:15;13.10;69.30
38333;DHT22;25748;46.670;14.272;2023-09-07T02:15:40;13.20;69.50
38333;DHT22;25748;46.670;14.272;2023-09-07T02:18:06;13.10;69.20
38333;DHT22;25748;46.670;14.272;2023-09-07T02:20:32;13.10;69.10
38333;DHT22;25748;46.670;14.272;2023-09-07T02:22:59;13.00;68.50
38333;DHT22;25748;46.670;14.272;2023-09-07T02:25:24;12.90;68.40
38333;DHT22;25748;46.670;14.272;2023-09-07T02:27:50;12.90;68.50
38333;DHT22;25748;46.670;14.272;2023-09-07T02:30:16;12.90;68.70
38333;DHT22;25748;46.670;14.272;2023-09-07T02:32:43;12.80;68.80
38333;DHT22;25748;46.670;14.272;2023-09-07T02:35:09;12.80;68.90
38333;DHT22;25748;46.670;14.272;2023-09-07T02:37:36;12.80;68.80
38333;DHT22;25748;46.670;14.272;2023-09-07T02:40:01;12.80;69.00
38333;DHT22;25748;46.670;14.272;2023-09-07T02:42:29;12.70;69.00
38333;DHT22;25748;46.670;14.272;2023-09-07T02:44:54;12.70;68.90
38333;DHT22;25748;46.670;14.272;2023-09-07T02:47:20;12.70;68.90
38333;DHT22;25748;46.670;14.272;2023-09-07T02:49:46;12.70;68.90
38333;DHT22;25748;46.670;14.272;2023-09-07T02:52:12;12.60;68.90
38333;DHT22;25748;46.670;14.272;2023-09-07T02:54:38;12.60;68.60
38333;DHT22;25748;46.670;14.272;2023-09-07T02:57:04;12.60;68.70
38333;DHT22;25748;46.670;14.272;2023-09-07T02:59:29;12.50;68.70
38333;DHT22;25748;46.670;14.272;2023-09-07T03:01:55;12.50;68.90
38333;DHT22;25748;46.670;14.272;2023-09-07T03:04:20;12.50;68.90
38333;DHT22;25748;46.670;14.272;2023-09-07T03:06:46;12.50;69.10
38333;DHT22;25748;46.670;14.272;2023-09-07T03:09:12;12.40;69.10
38333;DHT22;25748;46.670;14.272;2023-09-07T03:11:37;12.40;69.30
38333;DHT22;25748;46.670;14.272;2023-09-07T03:14:03;12.40;69.40
38333;DHT22;25748;46.670;14.272;2023-09-07T03:16:28;12.40;69.60
38333;DHT22;25748;46.670;14.272;2023-09-07T03:18:55;12.30;69.40
38333;DHT22;25748;46.670;14.272;2023-09-07T03:21:21;12.30;69.30
38333;DHT22;25748;46.670;14.272;2023-09-07T03:23:52;12.30;69.50
38333;DHT22;25748;46.670;14.272;2023-09-07T03:26:17;12.30;69.70
38333;DHT22;25748;46.670;14.272;2023-09-07T03:28:43;12.30;69.70
38333;DHT22;25748;46.670;14.272;2023-09-07T03:31:08;12.30;69.90
38333;DHT22;25748;46.670;14.272;2023-09-07T03:33:34;12.20;70.00
38333;DHT22;25748;46.670;14.272;2023-09-07T03:36:00;12.20;70.00
38333;DHT22;25748;46.670;14.272;2023-09-07T03:38:25;12.20;70.00
38333;DHT22;25748;46.670;14.272;2023-09-07T03:40:51;12.20;70.10
38333;DHT22;25748;46.670;14.272;2023-09-07T03:43:17;12.20;70.20
38333;DHT22;25748;46.670;14.272;2023-09-07T03:45:43;12.20;70.20
38333;DHT22;25748;46.670;14.272;2023-09-07T03:48:08;12.20;70.20
38333;DHT22;25748;46.670;14.272;2023-09-07T03:50:34;12.20;70.00
38333;DHT22;25748;46.670;14.272;2023-09-07T03:53:01;12.20;70.10
38333;DHT22;25748;46.670;14.272;2023-09-07T03:55:26;12.10;70.00
38333;DHT22;25748;46.670;14.272;2023-09-07T03:57:52;12.10;70.20
38333;DHT22;25748;46.670;14.272;2023-09-07T04:00:18;12.10;70.50
38333;DHT22;25748;46.670;14.272;2023-09-07T04:02:44;12.10;70.90
38333;DHT22;25748;46.670;14.272;2023-09-07T04:05:10;12.20;71.00
38333;DHT22;25748;46.670;14.272;2023-09-07T04:07:37;12.20;70.60
38333;DHT22;25748;46.670;14.272;2023-09-07T04:10:03;12.20;70.50
38333;DHT22;25748;46.670;14.272;2023-09-07T04:12:30;12.20;70.40
38333;DHT22;25748;46.670;14.272;2023-09-07T04:14:55;12.10;70.20
38333;DHT22;25748;46.670;14.272;2023-09-07T04:17:21;12.10;70.10
38333;DHT22;25748;46.670;14.272;2023-09-07T04:19:46;12.10;70.30
38333;DHT22;25748;46.670;14.272;2023-09-07T04:22:12;12.00;70.30
38333;DHT22;25748;46.670;14.272;2023-09-07T04:24:38;12.00;70.30
38333;DHT22;25748;46.670;14.272;2023-09-07T04:27:04;12.00;70.20
38333;DHT22;25748;46.670;14.272;2023-09-07T04:29:29;12.00;70.00
38333;DHT22;25748;46.670;14.272;2023-09-07T04:31:56;11.90;70.00
38333;DHT22;25748;46.670;14.272;2023-09-07T04:34:22;11.90;70.10
38333;DHT22;25748;46.670;14.272;2023-09-07T04:36:48;11.90;70.20
38333;DHT22;25748;46.670;14.272;2023-09-07T04:39:14;11.90;70.40
38333;DHT22;25748;46.670;14.272;2023-09-07T04:41:40;11.90;70.50
38333;DHT22;25748;46.670;14.272;2023-09-07T04:44:06;11.80;70.40
38333;DHT22;25748;46.670;14.272;2023-09-07T04:46:32;11.90;70.60
38333;DHT22;25748;46.670;14.272;2023-09-07T04:48:57;11.80;70.60
38333;DHT22;25748;46.670;14.272;2023-09-07T04:51:23;11.80;70.70
38333;DHT22;25748;46.670;14.272;2023-09-07T04:53:51;11.80;70.80
38333;DHT22;25748;46.670;14.272;2023-09-07T04:56:16;11.80;70.90
38333;DHT22;25748;46.670;14.272;2023-09-07T04:58:42;11.80;71.00
38333;DHT22;25748;46.670;14.272;2023-09-07T05:01:11;11.90;71.30
38333;DHT22;25748;46.670;14.272;2023-09-07T05:03:37;11.90;71.50
38333;DHT22;25748;46.670;14.272;2023-09-07T05:06:04;11.90;71.70
38333;DHT22;25748;46.670;14.272;2023-09-07T05:08:30;11.90;71.90
38333;DHT22;25748;46.670;14.272;2023-09-07T05:10:59;12.00;72.10
38333;DHT22;25748;46.670;14.272;2023-09-07T05:13:26;12.00;72.30
38333;DHT22;25748;46.670;14.272;2023-09-07T05:15:53;12.00;72.40
38333;DHT22;25748;46.670;14.272;2023-09-07T05:18:19;12.10;73.00
38333;DHT22;25748;46.670;14.272;2023-09-07T05:20:45;12.20;73.30
38333;DHT22;25748;46.670;14.272;2023-09-07T05:23:12;12.30;73.60
38333;DHT22;25748;46.670;14.272;2023-09-07T05:25:48;12.40;73.90
38333;DHT22;25748;46.670;14.272;2023-09-07T05:28:15;12.40;74.10
38333;DHT22;25748;46.670;14.272;2023-09-07T05:30:41;12.50;74.20
38333;DHT22;25748;46.670;14.272;2023-09-07T05:33:09;12.60;74.30
38333;DHT22;25748;46.670;14.272;2023-09-07T05:35:35;12.70;74.60
38333;DHT22;25748;46.670;14.272;2023-09-07T05:38:02;12.80;74.70
38333;DHT22;25748;46.670;14.272;2023-09-07T05:40:28;12.90;74.70
38333;DHT22;25748;46.670;14.272;2023-09-07T05:42:54;12.90;74.70
38333;DHT22;25748;46.670;14.272;2023-09-07T05:45:20;13.10;74.90
38333;DHT22;25748;46.670;14.272;2023-09-07T05:47:46;13.10;74.90
38333;DHT22;25748;46.670;14.272;2023-09-07T05:50:11;13.20;75.10
38333;DHT22;25748;46.670;14.272;2023-09-07T05:52:37;13.40;75.30
38333;DHT22;25748;46.670;14.272;2023-09-07T05:55:03;13.50;75.10
38333;DHT22;25748;46.670;14.272;2023-09-07T05:57:29;13.70;75.50
38333;DHT22;25748;46.670;14.272;2023-09-07T05:59:55;13.80;75.70
38333;DHT22;25748;46.670;14.272;2023-09-07T06:02:20;14.10;75.50
38333;DHT22;25748;46.670;14.272;2023-09-07T06:04:46;14.30;75.20
38333;DHT22;25748;46.670;14.272;2023-09-07T06:07:11;14.50;75.20
38333;DHT22;25748;46.670;14.272;2023-09-07T06:09:37;14.80;74.60
38333;DHT22;25748;46.670;14.272;2023-09-07T06:12:03;15.00;73.80
38333;DHT22;25748;46.670;14.272;2023-09-07T06:14:29;15.20;72.90
38333;DHT22;25748;46.670;14.272;2023-09-07T06:16:54;15.40;72.80
38333;DHT22;25748;46.670;14.272;2023-09-07T06:19:20;15.60;72.40
38333;DHT22;25748;46.670;14.272;2023-09-07T06:21:46;15.90;71.40
38333;DHT22;25748;46.670;14.272;2023-09-07T06:24:11;16.10;70.90
38333;DHT22;25748;46.670;14.272;2023-09-07T06:26:37;16.30;69.30
38333;DHT22;25748;46.670;14.272;2023-09-07T06:29:03;16.50;69.30
38333;DHT22;25748;46.670;14.272;2023-09-07T06:31:28;16.80;68.60
38333;DHT22;25748;46.670;14.272;2023-09-07T06:33:54;17.00;67.80
38333;DHT22;25748;46.670;14.272;2023-09-07T06:36:20;17.20;67.30
38333;DHT22;25748;46.670;14.272;2023-09-07T06:38:45;17.50;67.20
38333;DHT22;25748;46.670;14.272;2023-09-07T06:41:11;17.70;65.00
38333;DHT22;25748;46.670;14.272;2023-09-07T06:43:37;17.80;64.90
38333;DHT22;25748;46.670;14.272;2023-09-07T06:46:07;18.10;64.60
38333;DHT22;25748;46.670;14.272;2023-09-07T06:48:34;18.20;62.90
38333;DHT22;25748;46.670;14.272;2023-09-07T06:51:04;18.30;63.10
38333;DHT22;25748;46.670;14.272;2023-09-07T06:53:31;18.40;62.70
38333;DHT22;25748;46.670;14.272;2023-09-07T06:56:03;18.60;62.70
38333;DHT22;25748;46.670;14.272;2023-09-07T06:58:30;18.70;60.30
38333;DHT22;25748;46.670;14.272;2023-09-07T07:01:01;18.80;61.50
38333;DHT22;25748;46.670;14.272;2023-09-07T07:03:29;19.10;61.20
38333;DHT22;25748;46.670;14.272;2023-09-07T07:05:55;19.20;60.00
38333;DHT22;25748;46.670;14.272;2023-09-07T07:08:21;19.40;59.60
38333;DHT22;25748;46.670;14.272;2023-09-07T07:10:47;19.50;59.20
38333;DHT22;25748;46.670;14.272;2023-09-07T07:13:12;19.70;59.20
38333;DHT22;25748;46.670;14.272;2023-09-07T07:15:38;19.90;58.60
38333;DHT22;25748;46.670;14.272;2023-09-07T07:18:04;20.10;58.40
38333;DHT22;25748;46.670;14.272;2023-09-07T07:20:43;20.30;58.40
38333;DHT22;25748;46.670;14.272;2023-09-07T07:23:10;20.40;56.80
38333;DHT22;25748;46.670;14.272;2023-09-07T07:25:36;20.60;57.00
38333;DHT22;25748;46.670;14.272;2023-09-07T07:28:06;20.80;56.90
38333;DHT22;25748;46.670;14.272;2023-09-07T07:30:36;20.90;55.90
38333;DHT22;25748;46.670;14.272;2023-09-07T07:33:03;21.10;55.90
38333;DHT22;25748;46.670;14.272;2023-09-07T07:35:35;21.10;55.90
38333;DHT22;25748;46.670;14.272;2023-09-07T07:38:02;21.30;55.60
38333;DHT22;25748;46.670;14.272;2023-09-07T07:40:29;21.40;55.30
38333;DHT22;25748;46.670;14.272;2023-09-07T07:42:55;21.40;54.90
38333;DHT22;25748;46.670;14.272;2023-09-07T07:45:20;21.60;55.10
38333;DHT22;25748;46.670;14.272;2023-09-07T07:47:48;21.80;55.10
38333;DHT22;25748;46.670;14.272;2023-09-07T07:50:14;21.80;54.30
38333;DHT22;25748;46.670;14.272;2023-09-07T07:52:40;21.70;54.50
38333;DHT22;25748;46.670;14.272;2023-09-07T07:55:06;21.90;54.80
38333;DHT22;25748;46.670;14.272;2023-09-07T07:57:32;22.00;54.50
38333;DHT22;25748;46.670;14.272;2023-09-07T07:59:58;22.00;54.10
38333;DHT22;25748;46.670;14.272;2023-09-07T08:02:23;22.10;53.90
38333;DHT22;25748;46.670;14.272;2023-09-07T08:04:49;22.00;53.00
38333;DHT22;25748;46.670;14.272;2023-09-07T08:07:15;22.00;53.80
38333;DHT22;25748;46.670;14.272;2023-09-07T08:09:41;22.20;53.50
38333;DHT22;25748;46.670;14.272;2023-09-07T08:12:06;22.30;53.10
38333;DHT22;25748;46.670;14.272;2023-09-07T08:14:32;22.30;53.70
38333;DHT22;25748;46.670;14.272;2023-09-07T08:16:58;22.40;53.30
38333;DHT22;25748;46.670;14.272;2023-09-07T08:19:24;22.50;53.40
38333;DHT22;25748;46.670;14.272;2023-09-07T08:21:51;22.50;53.10
38333;DHT22;25748;46.670;14.272;2023-09-07T08:24:16;22.30;53.20
38333;DHT22;25748;46.670;14.272;2023-09-07T08:26:43;22.40;53.10
38333;DHT22;25748;46.670;14.272;2023-09-07T08:29:09;22.60;53.30
38333;DHT22;25748;46.670;14.272;2023-09-07T08:31:36;22.70;53.00
38333;DHT22;25748;46.670;14.272;2023-09-07T08:34:06;22.90;53.30
38333;DHT22;25748;46.670;14.272;2023-09-07T08:36:32;23.00;52.60
38333;DHT22;25748;46.670;14.272;2023-09-07T08:39:05;23.00;52.40
38333;DHT22;25748;46.670;14.272;2023-09-07T08:41:43;23.00;52.50
38333;DHT22;25748;46.670;14.272;2023-09-07T08:44:17;23.30;52.10
38333;DHT22;25748;46.670;14.272;2023-09-07T08:46:45;23.50;51.50
38333;DHT22;25748;46.670;14.272;2023-09-07T08:49:11;23.70;51.30
38333;DHT22;25748;46.670;14.272;2023-09-07T08:51:37;24.10;51.50
38333;DHT22;25748;46.670;14.272;2023-09-07T08:54:03;24.20;51.30
38333;DHT22;25748;46.670;14.272;2023-09-07T08:56:29;24.30;50.10
38333;DHT22;25748;46.670;14.272;2023-09-07T08:58:55;24.70;51.20
38333;DHT22;25748;46.670;14.272;2023-09-07T09:01:21;25.20;50.90
38333;DHT22;25748;46.670;14.272;2023-09-07T09:03:48;25.60;50.30
38333;DHT22;25748;46.670;14.272;2023-09-07T09:06:16;25.80;49.60
38333;DHT22;25748;46.670;14.272;2023-09-07T09:08:48;26.10;49.20
38333;DHT22;25748;46.670;14.272;2023-09-07T09:11:14;26.20;48.70
38333;DHT22;25748;46.670;14.272;2023-09-07T09:13:41;26.50;48.10
38333;DHT22;25748;46.670;14.272;2023-09-07T09:16:06;26.70;48.00
38333;DHT22;25748;46.670;14.272;2023-09-07T09:18:32;26.80;47.70
38333;DHT22;25748;46.670;14.272;2023-09-07T09:20:58;27.00;48.30
38333;DHT22;25748;46.670;14.272;2023-09-07T09:23:33;27.30;47.90
38333;DHT22;25748;46.670;14.272;2023-09-07T09:26:00;27.60;47.80
38333;DHT22;25748;46.670;14.272;2023-09-07T09:28:26;27.90;47.90
38333;DHT22;25748;46.670;14.272;2023-09-07T09:30:53;27.80;46.70
38333;DHT22;25748;46.670;14.272;2023-09-07T09:33:22;28.20;47.60
38333;DHT22;25748;46.670;14.272;2023-09-07T09:35:49;28.30;46.30
38333;DHT22;25748;46.670;14.272;2023-09-07T09:38:17;28.40;45.40
38333;DHT22;25748;46.670;14.272;2023-09-07T09:40:42;28.70;46.10
38333;DHT22;25748;46.670;14.272;2023-09-07T09:43:09;28.80;45.60
38333;DHT22;25748;46.670;14.272;2023-09-07T09:45:35;29.10;44.90
38333;DHT22;25748;46.670;14.272;2023-09-07T09:48:01;29.40;44.80
38333;DHT22;25748;46.670;14.272;2023-09-07T09:50:28;29.30;44.60
38333;DHT22;25748;46.670;14.272;2023-09-07T09:52:55;29.40;44.60
38333;DHT22;25748;46.670;14.272;2023-09-07T09:55:22;29.70;44.80
38333;DHT22;25748;46.670;14.272;2023-09-07T09:57:47;30.00;44.70
38333;DHT22;25748;46.670;14.272;2023-09-07T10:00:14;30.10;44.10
38333;DHT22;25748;46.670;14.272;2023-09-07T10:02:57;30.50;43.20
38333;DHT22;25748;46.670;14.272;2023-09-07T10:05:25;30.60;41.80
38333;DHT22;25748;46.670;14.272;2023-09-07T10:07:51;30.70;42.40
38333;DHT22;25748;46.670;14.272;2023-09-07T10:10:19;30.80;43.10
38333;DHT22;25748;46.670;14.272;2023-09-07T10:12:55;30.90;42.10
38333;DHT22;25748;46.670;14.272;2023-09-07T10:15:26;31.00;42.20
38333;DHT22;25748;46.670;14.272;2023-09-07T10:18:12;31.10;41.60
38333;DHT22;25748;46.670;14.272;2023-09-07T10:21:11;31.30;41.00
38333;DHT22;25748;46.670;14.272;2023-09-07T10:23:41;31.30;41.10
38333;DHT22;25748;46.670;14.272;2023-09-07T10:26:18;31.40;41.00
38333;DHT22;25748;46.670;14.272;2023-09-07T10:28:46;31.60;40.60
38333;DHT22;25748;46.670;14.272;2023-09-07T10:31:17;31.60;40.70
38333;DHT22;25748;46.670;14.272;2023-09-07T10:33:44;31.70;40.70
38333;DHT22;25748;46.670;14.272;2023-09-07T10:36:21;31.80;40.50
38333;DHT22;25748;46.670;14.272;2023-09-07T10:38:47;31.80;40.90
38333;DHT22;25748;46.670;14.272;2023-09-07T10:41:13;31.70;40.10
38333;DHT22;25748;46.670;14.272;2023-09-07T10:43:48;31.80;40.10
38333;DHT22;25748;46.670;14.272;2023-09-07T10:46:14;31.70;40.10
38333;DHT22;25748;46.670;14.272;2023-09-07T10:48:39;31.30;39.70
38333;DHT22;25748;46.670;14.272;2023-09-07T10:51:06;31.40;40.10
38333;DHT22;25748;46.670;14.272;2023-09-07T10:53:32;31.40;39.60
38333;DHT22;25748;46.670;14.272;2023-09-07T10:56:05;31.50;39.90
38333;DHT22;25748;46.670;14.272;2023-09-07T10:58:35;31.50;40.20
38333;DHT22;25748;46.670;14.272;2023-09-07T11:01:03;31.40;39.90
38333;DHT22;25748;46.670;14.272;2023-09-07T11:03:30;30.90;40.00
38333;DHT22;25748;46.670;14.272;2023-09-07T11:06:20;30.90;40.10
38333;DHT22;25748;46.670;14.272;2023-09-07T11:08:46;30.80;40.50
38333;DHT22;25748;46.670;14.272;2023-09-07T11:11:13;30.80;40.50
38333;DHT22;25748;46.670;14.272;2023-09-07T11:13:38;30.60;40.60
38333;DHT22;25748;46.670;14.272;2023-09-07T11:16:07;30.60;41.70
38333;DHT22;25748;46.670;14.272;2023-09-07T11:18:34;30.60;41.60
38333;DHT22;25748;46.670;14.272;2023-09-07T11:21:02;30.70;39.80
38333;DHT22;25748;46.670;14.272;2023-09-07T11:23:33;30.40;39.60
38333;DHT22;25748;46.670;14.272;2023-09-07T11:26:07;30.00;41.10
38333;DHT22;25748;46.670;14.272;2023-09-07T11:28:33;30.10;40.50
38333;DHT22;25748;46.670;14.272;2023-09-07T11:30:59;30.30;40.70
38333;DHT22;25748;46.670;14.272;2023-09-07T11:33:25;30.50;41.00
38333;DHT22;25748;46.670;14.272;2023-09-07T11:35:52;30.60;41.10
38333;DHT22;25748;46.670;14.272;2023-09-07T11:38:20;30.60;40.40
38333;DHT22;25748;46.670;14.272;2023-09-07T11:40:45;30.50;40.80
38333;DHT22;25748;46.670;14.272;2023-09-07T11:43:15;30.40;40.10
38333;DHT22;25748;46.670;14.272;2023-09-07T11:45:42;30.30;40.00
38333;DHT22;25748;46.670;14.272;2023-09-07T11:48:08;30.40;40.30
38333;DHT22;25748;46.670;14.272;2023-09-07T11:50:35;30.40;40.20
38333;DHT22;25748;46.670;14.272;2023-09-07T11:53:01;30.30;40.20
38333;DHT22;25748;46.670;14.272;2023-09-07T11:55:27;30.30;39.70
38333;DHT22;25748;46.670;14.272;2023-09-07T11:57:53;30.40;40.00
38333;DHT22;25748;46.670;14.272;2023-09-07T12:00:18;30.40;39.90
38333;DHT22;25748;46.670;14.272;2023-09-07T12:02:44;30.50;39.70
38333;DHT22;25748;46.670;14.272;2023-09-07T12:05:10;30.60;40.00
38333;DHT22;25748;46.670;14.272;2023-09-07T12:07:39;30.60;39.90
38333;DHT22;25748;46.670;14.272;2023-09-07T12:10:06;30.60;40.00
38333;DHT22;25748;46.670;14.272;2023-09-07T12:12:36;30.60;40.20
38333;DHT22;25748;46.670;14.272;2023-09-07T12:15:02;30.50;40.00
38333;DHT22;25748;46.670;14.272;2023-09-07T12:17:30;30.60;39.40
38333;DHT22;25748;46.670;14.272;2023-09-07T12:19:55;30.50;39.70
38333;DHT22;25748;46.670;14.272;2023-09-07T12:22:21;30.60;39.60
38333;DHT22;25748;46.670;14.272;2023-09-07T12:24:47;30.60;39.90
38333;DHT22;25748;46.670;14.272;2023-09-07T12:27:12;30.80;39.70
38333;DHT22;25748;46.670;14.272;2023-09-07T12:29:38;30.90;39.10
38333;DHT22;25748;46.670;14.272;2023-09-07T12:32:04;31.00;39.10
38333;DHT22;25748;46.670;14.272;2023-09-07T12:34:30;30.70;38.40
38333;DHT22;25748;46.670;14.272;2023-09-07T12:36:55;30.90;38.60
38333;DHT22;25748;46.670;14.272;2023-09-07T12:39:21;30.90;38.30
38333;DHT22;25748;46.670;14.272;2023-09-07T12:41:46;30.90;38.40
38333;DHT22;25748;46.670;14.272;2023-09-07T12:44:12;30.90;37.70
38333;DHT22;25748;46.670;14.272;2023-09-07T12:46:38;30.90;38.10
38333;DHT22;25748;46.670;14.272;2023-09-07T12:49:04;30.80;39.80
38333;DHT22;25748;46.670;14.272;2023-09-07T12:51:30;30.80;38.20
38333;DHT22;25748;46.670;14.272;2023-09-07T12:53:56;30.70;38.00
38333;DHT22;25748;46.670;14.272;2023-09-07T12:56:22;30.60;37.80
38333;DHT22;25748;46.670;14.272;2023-09-07T12:58:47;30.50;38.50
38333;DHT22;25748;46.670;14.272;2023-09-07T13:01:14;30.60;38.50
38333;DHT22;25748;46.670;14.272;2023-09-07T13:03:41;30.50;37.70
38333;DHT22;25748;46.670;14.272;2023-09-07T13:06:07;30.50;38.10
38333;DHT22;25748;46.670;14.272;2023-09-07T13:08:33;30.50;38.20
38333;DHT22;25748;46.670;14.272;2023-09-07T13:10:59;30.50;38.20
38333;DHT22;25748;46.670;14.272;2023-09-07T13:13:24;30.50;38.60
38333;DHT22;25748;46.670;14.272;2023-09-07T13:15:58;30.50;38.40
38333;DHT22;25748;46.670;14.272;2023-09-07T13:18:24;30.50;37.90
38333;DHT22;25748;46.670;14.272;2023-09-07T13:20:50;30.50;38.30
38333;DHT22;25748;46.670;14.272;2023-09-07T13:23:17;30.50;38.30
38333;DHT22;25748;46.670;14.272;2023-09-07T13:25:43;30.50;38.90
38333;DHT22;25748;46.670;14.272;2023-09-07T13:28:09;30.50;38.80
38333;DHT22;25748;46.670;14.272;2023-09-07T13:30:35;30.50;38.30
38333;DHT22;25748;46.670;14.272;2023-09-07T13:33:00;30.50;38.30
38333;DHT22;25748;46.670;14.272;2023-09-07T13:35:26;30.50;38.40
38333;DHT22;25748;46.670;14.272;2023-09-07T13:37:52;30.40;38.00
38333;DHT22;25748;46.670;14.272;2023-09-07T13:40:18;30.30;38.10
38333;DHT22;25748;46.670;14.272;2023-09-07T13:42:47;30.20;38.90
38333;DHT22;25748;46.670;14.272;2023-09-07T13:45:13;30.00;38.30
38333;DHT22;25748;46.670;14.272;2023-09-07T13:47:39;30.00;38.80
38333;DHT22;25748;46.670;14.272;2023-09-07T13:50:05;29.90;38.40
38333;DHT22;25748;46.670;14.272;2023-09-07T13:52:31;29.80;38.70
38333;DHT22;25748;46.670;14.272;2023-09-07T13:54:57;29.70;38.60
38333;DHT22;25748;46.670;14.272;2023-09-07T13:57:22;29.60;38.80
38333;DHT22;25748;46.670;14.272;2023-09-07T13:59:48;29.50;38.60
38333;DHT22;25748;46.670;14.272;2023-09-07T14:02:14;29.40;38.60
38333;DHT22;25748;46.670;14.272;2023-09-07T14:04:39;29.30;39.00
38333;DHT22;25748;46.670;14.272;2023-09-07T14:07:05;29.20;39.00
38333;DHT22;25748;46.670;14.272;2023-09-07T14:09:30;29.20;38.50
38333;DHT22;25748;46.670;14.272;2023-09-07T14:11:56;29.10;39.00
38333;DHT22;25748;46.670;14.272;2023-09-07T14:14:22;28.90;39.20
38333;DHT22;25748;46.670;14.272;2023-09-07T14:16:48;28.90;39.60
38333;DHT22;25748;46.670;14.272;2023-09-07T14:19:15;28.70;39.50
38333;DHT22;25748;46.670;14.272;2023-09-07T14:21:41;28.60;39.40
38333;DHT22;25748;46.670;14.272;2023-09-07T14:24:06;28.60;39.60
38333;DHT22;25748;46.670;14.272;2023-09-07T14:26:32;28.50;39.30
38333;DHT22;25748;46.670;14.272;2023-09-07T14:28:58;28.50;39.20
38333;DHT22;25748;46.670;14.272;2023-09-07T14:31:23;28.40;39.20
38333;DHT22;25748;46.670;14.272;2023-09-07T14:33:49;28.40;39.10
38333;DHT22;25748;46.670;14.272;2023-09-07T14:36:15;28.30;39.40
38333;DHT22;25748;46.670;14.272;2023-09-07T14:38:41;28.20;39.50
38333;DHT22;25748;46.670;14.272;2023-09-07T14:41:10;28.20;39.80
38333;DHT22;25748;46.670;14.272;2023-09-07T14:43:41;28.20;40.10
38333;DHT22;25748;46.670;14.272;2023-09-07T14:46:06;28.10;39.80
38333;DHT22;25748;46.670;14.272;2023-09-07T14:48:32;28.10;40.10
38333;DHT22;25748;46.670;14.272;2023-09-07T14:50:58;28.00;39.70
38333;DHT22;25748;46.670;14.272;2023-09-07T14:53:24;28.00;39.60
38333;DHT22;25748;46.670;14.272;2023-09-07T14:55:49;28.00;39.90
38333;DHT22;25748;46.670;14.272;2023-09-07T14:58:15;28.00;40.10
38333;DHT22;25748;46.670;14.272;2023-09-07T15:00:40;27.90;40.10
38333;DHT22;25748;46.670;14.272;2023-09-07T15:03:06;27.90;40.10
38333;DHT22;25748;46.670;14.272;2023-09-07T15:05:32;27.90;40.30
38333;DHT22;25748;46.670;14.272;2023-09-07T15:07:57;27.90;40.00
38333;DHT22;25748;46.670;14.272;2023-09-07T15:10:23;27.90;39.90
38333;DHT22;25748;46.670;14.272;2023-09-07T15:12:51;27.90;39.70